sensor_id;sensor_type;location;lat;lon;timestamp;P1;durP1;ratioP1;P2;durP2;ratioP2
45762;SDS011;37512;52.408;13.356;2022-09-21T00:03:27;6.75;;;4.82;;
45762;SDS011;37512;52.408;13.356;2022-09-21T00:07:28;6.35;;;4.22;;
45762;SDS011;37512;52.408;13.356;2022-09-21T00:11:30;11.07;;;4.75;;
45762;SDS011;37512;52.408;13.356;2022-09-21T00:15:33;11.80;;;4.25;;
45762;SDS011;37512;52.408;13.356;2022-09-21T00:19:35;8.70;;;4.35;;
45762;SDS011;37512;52.408;13.356;2022-09-21T00:23:36;7.10;;;4.10;;
45762;SDS011;37512;52.408;13.356;2022-09-21T00:27:38;4.15;;;2.78;;
45762;SDS011;37512;52.408;13.356;2022-09-21T00:31:40;4.80;;;3.03;;
45762;SDS011;37512;52.408;13.356;2022-09-21T00:35:41;3.47;;;3.00;;
45762;SDS011;37512;52.408;13.356;2022-09-21T00:39:43;4.25;;;2.60;;
45762;SDS011;37512;52.408;13.356;2022-09-21T00:43:46;5.47;;;3.00;;
45762;SDS011;37512;52.408;13.356;2022-09-21T00:47:49;2.85;;;2.35;;
45762;SDS011;37512;52.408;13.356;2022-09-21T00:51:52;3.75;;;2.40;;
45762;SDS011;37512;52.408;13.356;2022-09-21T00:55:55;5.97;;;3.22;;
45762;SDS011;37512;52.408;13.356;2022-09-21T01:00:00;5.20;;;2.78;;
45762;SDS011;37512;52.408;13.356;2022-09-21T01:04:05;3.88;;;2.58;;
45762;SDS011;37512;52.408;13.356;2022-09-21T01:08:07;4.38;;;2.63;;
45762;SDS011;37512;52.408;13.356;2022-09-21T01:21:19;2.85;;;2.10;;
45762;SDS011;37512;52.408;13.356;2022-09-21T01:25:33;2.95;;;2.17;;
45762;SDS011;37512;52.408;13.356;2022-09-21T01:29:45;4.68;;;2.50;;
45762;SDS011;37512;52.408;13.356;2022-09-21T01:33:54;3.85;;;2.45;;
45762;SDS011;37512;52.408;13.356;2022-09-21T01:38:06;3.72;;;2.08;;
45762;SDS011;37512;52.408;13.356;2022-09-21T01:42:10;3.05;;;2.53;;
45762;SDS011;37512;52.408;13.356;2022-09-21T01:46:15;3.05;;;2.47;;
45762;SDS011;37512;52.408;13.356;2022-09-21T01:50:19;3.63;;;2.42;;
45762;SDS011;37512;52.408;13.356;2022-09-21T01:54:22;4.45;;;2.45;;
45762;SDS011;37512;52.408;13.356;2022-09-21T01:58:45;4.38;;;2.85;;
45762;SDS011;37512;52.408;13.356;2022-09-21T02:02:53;5.43;;;2.85;;
45762;SDS011;37512;52.408;13.356;2022-09-21T02:07:06;4.57;;;2.50;;
45762;SDS011;37512;52.408;13.356;2022-09-21T02:11:08;3.58;;;2.50;;
45762;SDS011;37512;52.408;13.356;2022-09-21T02:15:13;4.22;;;2.60;;
45762;SDS011;37512;52.408;13.356;2022-09-21T02:19:18;6.38;;;3.65;;
45762;SDS011;37512;52.408;13.356;2022-09-21T02:23:36;4.13;;;3.00;;
45762;SDS011;37512;52.408;13.356;2022-09-21T02:27:52;3.53;;;2.92;;
45762;SDS011;37512;52.408;13.356;2022-09-21T02:32:36;5.63;;;3.08;;
45762;SDS011;37512;52.408;13.356;2022-09-21T02:37:01;8.13;;;3.47;;
45762;SDS011;37512;52.408;13.356;2022-09-21T02:41:18;7.28;;;4.53;;
45762;SDS011;37512;52.408;13.356;2022-09-21T02:45:26;5.88;;;3.80;;
45762;SDS011;37512;52.408;13.356;2022-09-21T02:49:33;5.93;;;3.88;;
45762;SDS011;37512;52.408;13.356;2022-09-21T02:53:39;6.38;;;3.92;;
45762;SDS011;37512;52.408;13.356;2022-09-21T02:57:42;9.27;;;5.03;;
45762;SDS011;37512;52.408;13.356;2022-09-21T03:01:45;8.00;;;4.50;;
45762;SDS011;37512;52.408;13.356;2022-09-21T03:05:48;6.47;;;4.28;;
45762;SDS011;37512;52.408;13.356;2022-09-21T03:09:51;5.78;;;4.03;;
45762;SDS011;37512;52.408;13.356;2022-09-21T03:13:52;7.80;;;3.20;;
45762;SDS011;37512;52.408;13.356;2022-09-21T03:17:54;4.50;;;3.10;;
45762;SDS011;37512;52.408;13.356;2022-09-21T03:21:56;4.80;;;3.20;;
45762;SDS011;37512;52.408;13.356;2022-09-21T03:25:57;4.53;;;3.13;;
45762;SDS011;37512;52.408;13.356;2022-09-21T03:29:59;4.88;;;3.35;;
45762;SDS011;37512;52.408;13.356;2022-09-21T03:34:02;4.70;;;2.70;;
45762;SDS011;37512;52.408;13.356;2022-09-21T03:38:04;4.88;;;2.67;;
45762;SDS011;37512;52.408;13.356;2022-09-21T03:42:06;3.55;;;2.90;;
45762;SDS011;37512;52.408;13.356;2022-09-21T03:46:07;6.15;;;2.65;;
45762;SDS011;37512;52.408;13.356;2022-09-21T03:50:09;3.05;;;2.33;;
45762;SDS011;37512;52.408;13.356;2022-09-21T03:54:11;3.65;;;2.60;;
45762;SDS011;37512;52.408;13.356;2022-09-21T03:58:12;4.60;;;3.05;;
45762;SDS011;37512;52.408;13.356;2022-09-21T04:02:15;4.80;;;3.20;;
45762;SDS011;37512;52.408;13.356;2022-09-21T04:06:17;4.85;;;3.03;;
45762;SDS011;37512;52.408;13.356;2022-09-21T04:10:19;5.57;;;3.58;;
45762;SDS011;37512;52.408;13.356;2022-09-21T04:14:24;4.63;;;3.45;;
45762;SDS011;37512;52.408;13.356;2022-09-21T04:18:25;5.40;;;3.20;;
45762;SDS011;37512;52.408;13.356;2022-09-21T04:22:27;4.53;;;3.67;;
45762;SDS011;37512;52.408;13.356;2022-09-21T04:26:29;4.55;;;3.60;;
45762;SDS011;37512;52.408;13.356;2022-09-21T04:30:32;28.92;;;4.22;;
45762;SDS011;37512;52.408;13.356;2022-09-21T04:34:38;10.00;;;4.15;;
45762;SDS011;37512;52.408;13.356;2022-09-21T04:38:39;8.85;;;4.07;;
45762;SDS011;37512;52.408;13.356;2022-09-21T04:42:41;45.58;;;6.05;;
45762;SDS011;37512;52.408;13.356;2022-09-21T04:46:42;15.52;;;5.20;;
45762;SDS011;37512;52.408;13.356;2022-09-21T04:50:47;8.10;;;4.80;;
45762;SDS011;37512;52.408;13.356;2022-09-21T04:54:49;8.30;;;5.60;;
45762;SDS011;37512;52.408;13.356;2022-09-21T04:58:51;7.85;;;4.85;;
45762;SDS011;37512;52.408;13.356;2022-09-21T05:02:52;6.43;;;4.85;;
45762;SDS011;37512;52.408;13.356;2022-09-21T05:06:54;7.10;;;4.88;;
45762;SDS011;37512;52.408;13.356;2022-09-21T05:10:55;6.07;;;3.97;;
45762;SDS011;37512;52.408;13.356;2022-09-21T05:14:56;6.00;;;4.22;;
45762;SDS011;37512;52.408;13.356;2022-09-21T05:18:58;6.15;;;5.05;;
45762;SDS011;37512;52.408;13.356;2022-09-21T05:22:59;6.15;;;4.28;;
45762;SDS011;37512;52.408;13.356;2022-09-21T05:27:02;5.57;;;4.18;;
45762;SDS011;37512;52.408;13.356;2022-09-21T05:35:37;5.32;;;3.70;;
45762;SDS011;37512;52.408;13.356;2022-09-21T05:39:46;6.00;;;3.90;;
45762;SDS011;37512;52.408;13.356;2022-09-21T05:43:47;8.60;;;4.10;;
45762;SDS011;37512;52.408;13.356;2022-09-21T05:47:54;7.70;;;4.03;;
45762;SDS011;37512;52.408;13.356;2022-09-21T06:00:53;13.48;;;5.00;;
45762;SDS011;37512;52.408;13.356;2022-09-21T06:05:10;10.32;;;5.18;;
45762;SDS011;37512;52.408;13.356;2022-09-21T06:09:12;7.88;;;5.72;;
45762;SDS011;37512;52.408;13.356;2022-09-21T06:13:14;8.02;;;5.30;;
45762;SDS011;37512;52.408;13.356;2022-09-21T06:17:15;8.63;;;4.93;;
45762;SDS011;37512;52.408;13.356;2022-09-21T06:21:17;7.95;;;4.78;;
45762;SDS011;37512;52.408;13.356;2022-09-21T06:25:18;6.05;;;3.97;;
45762;SDS011;37512;52.408;13.356;2022-09-21T06:29:20;5.45;;;4.20;;
45762;SDS011;37512;52.408;13.356;2022-09-21T06:33:23;5.72;;;3.78;;
45762;SDS011;37512;52.408;13.356;2022-09-21T06:37:25;5.68;;;4.10;;
45762;SDS011;37512;52.408;13.356;2022-09-21T06:41:26;7.32;;;4.25;;
45762;SDS011;37512;52.408;13.356;2022-09-21T06:45:28;4.90;;;3.47;;
45762;SDS011;37512;52.408;13.356;2022-09-21T06:49:31;5.32;;;3.95;;
45762;SDS011;37512;52.408;13.356;2022-09-21T06:53:32;6.32;;;3.95;;
45762;SDS011;37512;52.408;13.356;2022-09-21T06:57:34;9.10;;;3.88;;
45762;SDS011;37512;52.408;13.356;2022-09-21T07:01:38;6.68;;;3.72;;
45762;SDS011;37512;52.408;13.356;2022-09-21T07:05:43;9.68;;;3.95;;
45762;SDS011;37512;52.408;13.356;2022-09-21T07:09:45;9.05;;;4.35;;
45762;SDS011;37512;52.408;13.356;2022-09-21T07:14:06;6.45;;;4.03;;
45762;SDS011;37512;52.408;13.356;2022-09-21T07:18:11;4.72;;;3.97;;
45762;SDS011;37512;52.408;13.356;2022-09-21T07:22:14;6.30;;;4.70;;
45762;SDS011;37512;52.408;13.356;2022-09-21T07:26:15;7.85;;;4.22;;
45762;SDS011;37512;52.408;13.356;2022-09-21T07:30:17;4.38;;;3.78;;
45762;SDS011;37512;52.408;13.356;2022-09-21T07:34:18;8.55;;;3.75;;
45762;SDS011;37512;52.408;13.356;2022-09-21T07:38:20;5.07;;;3.90;;
45762;SDS011;37512;52.408;13.356;2022-09-21T07:42:21;6.30;;;3.40;;
45762;SDS011;37512;52.408;13.356;2022-09-21T07:46:24;4.70;;;3.35;;
45762;SDS011;37512;52.408;13.356;2022-09-21T07:50:25;5.18;;;3.42;;
45762;SDS011;37512;52.408;13.356;2022-09-21T07:54:27;3.63;;;3.20;;
45762;SDS011;37512;52.408;13.356;2022-09-21T07:58:28;6.65;;;4.10;;
45762;SDS011;37512;52.408;13.356;2022-09-21T08:06:50;7.13;;;3.88;;
45762;SDS011;37512;52.408;13.356;2022-09-21T08:10:51;6.57;;;3.42;;
45762;SDS011;37512;52.408;13.356;2022-09-21T08:14:54;6.47;;;3.22;;
45762;SDS011;37512;52.408;13.356;2022-09-21T08:18:56;6.75;;;3.30;;
45762;SDS011;37512;52.408;13.356;2022-09-21T08:22:57;4.45;;;3.15;;
45762;SDS011;37512;52.408;13.356;2022-09-21T08:27:00;5.35;;;2.80;;
45762;SDS011;37512;52.408;13.356;2022-09-21T08:31:03;2.95;;;2.55;;
45762;SDS011;37512;52.408;13.356;2022-09-21T08:35:06;4.80;;;2.92;;
45762;SDS011;37512;52.408;13.356;2022-09-21T08:39:08;6.90;;;2.70;;
45762;SDS011;37512;52.408;13.356;2022-09-21T08:43:11;3.97;;;2.65;;
45762;SDS011;37512;52.408;13.356;2022-09-21T08:51:45;7.20;;;3.50;;
45762;SDS011;37512;52.408;13.356;2022-09-21T08:55:57;6.57;;;3.90;;
45762;SDS011;37512;52.408;13.356;2022-09-21T08:59:59;3.50;;;2.80;;
45762;SDS011;37512;52.408;13.356;2022-09-21T09:08:29;5.20;;;2.53;;
45762;SDS011;37512;52.408;13.356;2022-09-21T09:12:49;6.10;;;2.70;;
45762;SDS011;37512;52.408;13.356;2022-09-21T09:21:36;2.60;;;1.95;;
45762;SDS011;37512;52.408;13.356;2022-09-21T09:25:41;2.67;;;1.85;;
45762;SDS011;37512;52.408;13.356;2022-09-21T09:29:58;2.60;;;1.85;;
45762;SDS011;37512;52.408;13.356;2022-09-21T09:38:35;6.18;;;1.55;;
45762;SDS011;37512;52.408;13.356;2022-09-21T09:42:57;3.42;;;1.50;;
45762;SDS011;37512;52.408;13.356;2022-09-21T09:51:28;2.60;;;1.30;;
45762;SDS011;37512;52.408;13.356;2022-09-21T09:55:37;2.00;;;1.13;;
45762;SDS011;37512;52.408;13.356;2022-09-21T09:59:42;2.85;;;1.20;;
45762;SDS011;37512;52.408;13.356;2022-09-21T10:04:04;2.35;;;1.23;;
45762;SDS011;37512;52.408;13.356;2022-09-21T10:12:45;1.92;;;1.00;;
45762;SDS011;37512;52.408;13.356;2022-09-21T10:16:48;3.13;;;1.20;;
45762;SDS011;37512;52.408;13.356;2022-09-21T10:20:55;2.55;;;1.00;;
45762;SDS011;37512;52.408;13.356;2022-09-21T10:25:00;2.45;;;0.90;;
45762;SDS011;37512;52.408;13.356;2022-09-21T10:29:17;1.13;;;0.80;;
45762;SDS011;37512;52.408;13.356;2022-09-21T10:33:19;1.20;;;0.80;;
45762;SDS011;37512;52.408;13.356;2022-09-21T10:37:24;1.75;;;1.02;;
45762;SDS011;37512;52.408;13.356;2022-09-21T10:41:29;1.60;;;0.90;;
45762;SDS011;37512;52.408;13.356;2022-09-21T10:45:31;1.65;;;0.93;;
45762;SDS011;37512;52.408;13.356;2022-09-21T10:49:41;0.82;;;0.65;;
45762;SDS011;37512;52.408;13.356;2022-09-21T10:53:48;1.40;;;0.95;;
45762;SDS011;37512;52.408;13.356;2022-09-21T10:57:54;1.75;;;0.85;;
45762;SDS011;37512;52.408;13.356;2022-09-21T11:01:57;1.05;;;0.85;;
45762;SDS011;37512;52.408;13.356;2022-09-21T11:06:06;1.80;;;1.05;;
45762;SDS011;37512;52.408;13.356;2022-09-21T11:10:24;1.45;;;0.95;;
45762;SDS011;37512;52.408;13.356;2022-09-21T11:23:01;1.60;;;1.10;;
45762;SDS011;37512;52.408;13.356;2022-09-21T11:27:15;4.65;;;1.10;;
45762;SDS011;37512;52.408;13.356;2022-09-21T11:44:19;4.47;;;1.27;;
45762;SDS011;37512;52.408;13.356;2022-09-21T11:57:36;2.22;;;0.90;;
45762;SDS011;37512;52.408;13.356;2022-09-21T12:05:57;2.33;;;1.60;;
45762;SDS011;37512;52.408;13.356;2022-09-21T12:14:46;1.75;;;1.13;;
45762;SDS011;37512;52.408;13.356;2022-09-21T12:23:41;1.10;;;0.60;;
45762;SDS011;37512;52.408;13.356;2022-09-21T12:27:47;1.30;;;0.90;;
45762;SDS011;37512;52.408;13.356;2022-09-21T12:31:56;2.47;;;0.95;;
45762;SDS011;37512;52.408;13.356;2022-09-21T12:40:39;4.45;;;1.23;;
45762;SDS011;37512;52.408;13.356;2022-09-21T12:44:52;2.80;;;1.02;;
45762;SDS011;37512;52.408;13.356;2022-09-21T12:48:59;1.40;;;0.80;;
45762;SDS011;37512;52.408;13.356;2022-09-21T12:53:05;1.13;;;0.70;;
45762;SDS011;37512;52.408;13.356;2022-09-21T13:01:50;1.63;;;0.82;;
45762;SDS011;37512;52.408;13.356;2022-09-21T13:10:45;4.57;;;1.13;;
45762;SDS011;37512;52.408;13.356;2022-09-21T13:14:58;1.92;;;1.10;;
45762;SDS011;37512;52.408;13.356;2022-09-21T13:19:15;3.13;;;1.00;;
45762;SDS011;37512;52.408;13.356;2022-09-21T13:36:33;4.78;;;1.30;;
45762;SDS011;37512;52.408;13.356;2022-09-21T13:40:36;1.90;;;1.20;;
45762;SDS011;37512;52.408;13.356;2022-09-21T13:44:39;2.35;;;1.27;;
45762;SDS011;37512;52.408;13.356;2022-09-21T13:48:42;4.85;;;2.55;;
45762;SDS011;37512;52.408;13.356;2022-09-21T13:52:44;6.45;;;2.55;;
45762;SDS011;37512;52.408;13.356;2022-09-21T13:56:56;6.20;;;1.00;;
45762;SDS011;37512;52.408;13.356;2022-09-21T14:01:01;1.70;;;1.20;;
45762;SDS011;37512;52.408;13.356;2022-09-21T14:05:39;0.80;;;0.60;;
45762;SDS011;37512;52.408;13.356;2022-09-21T14:09:57;1.30;;;0.70;;
45762;SDS011;37512;52.408;13.356;2022-09-21T14:18:17;1.38;;;0.90;;
45762;SDS011;37512;52.408;13.356;2022-09-21T14:22:36;2.05;;;0.93;;
45762;SDS011;37512;52.408;13.356;2022-09-21T14:30:39;2.00;;;0.77;;
45762;SDS011;37512;52.408;13.356;2022-09-21T14:34:51;1.77;;;0.95;;
45762;SDS011;37512;52.408;13.356;2022-09-21T14:38:58;2.28;;;1.27;;
45762;SDS011;37512;52.408;13.356;2022-09-21T14:43:14;1.40;;;0.80;;
45762;SDS011;37512;52.408;13.356;2022-09-21T14:56:36;1.75;;;0.80;;
45762;SDS011;37512;52.408;13.356;2022-09-21T15:00:40;2.22;;;0.70;;
45762;SDS011;37512;52.408;13.356;2022-09-21T15:18:16;2.22;;;0.80;;
45762;SDS011;37512;52.408;13.356;2022-09-21T15:22:20;1.25;;;0.73;;
45762;SDS011;37512;52.408;13.356;2022-09-21T15:26:23;0.73;;;0.50;;
45762;SDS011;37512;52.408;13.356;2022-09-21T15:30:27;2.35;;;0.95;;
45762;SDS011;37512;52.408;13.356;2022-09-21T15:34:33;1.92;;;1.10;;
45762;SDS011;37512;52.408;13.356;2022-09-21T15:38:34;9.95;;;5.80;;
45762;SDS011;37512;52.408;13.356;2022-09-21T15:42:38;2.45;;;1.20;;
45762;SDS011;37512;52.408;13.356;2022-09-21T15:47:09;7.05;;;4.28;;
45762;SDS011;37512;52.408;13.356;2022-09-21T15:51:15;2.22;;;1.20;;
45762;SDS011;37512;52.408;13.356;2022-09-21T15:55:33;3.28;;;1.08;;
45762;SDS011;37512;52.408;13.356;2022-09-21T15:59:35;2.58;;;1.15;;
45762;SDS011;37512;52.408;13.356;2022-09-21T16:03:37;1.17;;;0.93;;
45762;SDS011;37512;52.408;13.356;2022-09-21T16:07:40;1.50;;;0.95;;
45762;SDS011;37512;52.408;13.356;2022-09-21T16:11:41;2.05;;;1.13;;
45762;SDS011;37512;52.408;13.356;2022-09-21T16:15:43;1.88;;;1.00;;
45762;SDS011;37512;52.408;13.356;2022-09-21T16:20:05;5.93;;;3.85;;
45762;SDS011;37512;52.408;13.356;2022-09-21T16:24:16;7.88;;;3.60;;
45762;SDS011;37512;52.408;13.356;2022-09-21T16:32:28;4.18;;;1.02;;
45762;SDS011;37512;52.408;13.356;2022-09-21T16:36:33;1.33;;;1.00;;
45762;SDS011;37512;52.408;13.356;2022-09-21T16:40:38;1.65;;;0.95;;
45762;SDS011;37512;52.408;13.356;2022-09-21T16:44:42;4.05;;;1.20;;
45762;SDS011;37512;52.408;13.356;2022-09-21T16:48:47;2.47;;;1.10;;
45762;SDS011;37512;52.408;13.356;2022-09-21T16:52:49;2.65;;;1.20;;
45762;SDS011;37512;52.408;13.356;2022-09-21T16:57:02;2.35;;;1.10;;
45762;SDS011;37512;52.408;13.356;2022-09-21T17:01:06;2.75;;;1.42;;
45762;SDS011;37512;52.408;13.356;2022-09-21T17:05:11;2.08;;;1.30;;
45762;SDS011;37512;52.408;13.356;2022-09-21T17:09:23;2.60;;;1.60;;
45762;SDS011;37512;52.408;13.356;2022-09-21T17:13:44;4.32;;;1.50;;
45762;SDS011;37512;52.408;13.356;2022-09-21T17:17:54;3.35;;;1.70;;
45762;SDS011;37512;52.408;13.356;2022-09-21T17:21:58;2.55;;;1.33;;
45762;SDS011;37512;52.408;13.356;2022-09-21T17:26:10;2.58;;;1.80;;
45762;SDS011;37512;52.408;13.356;2022-09-21T17:30:22;3.85;;;2.30;;
45762;SDS011;37512;52.408;13.356;2022-09-21T17:34:26;3.92;;;2.05;;
45762;SDS011;37512;52.408;13.356;2022-09-21T17:38:28;7.75;;;3.63;;
45762;SDS011;37512;52.408;13.356;2022-09-21T17:42:30;5.45;;;2.65;;
45762;SDS011;37512;52.408;13.356;2022-09-21T17:46:41;5.82;;;2.65;;
45762;SDS011;37512;52.408;13.356;2022-09-21T17:50:51;5.65;;;2.80;;
45762;SDS011;37512;52.408;13.356;2022-09-21T17:54:53;5.45;;;2.45;;
45762;SDS011;37512;52.408;13.356;2022-09-21T17:58:59;4.20;;;1.85;;
45762;SDS011;37512;52.408;13.356;2022-09-21T18:03:02;3.85;;;2.40;;
45762;SDS011;37512;52.408;13.356;2022-09-21T18:07:04;5.10;;;2.72;;
45762;SDS011;37512;52.408;13.356;2022-09-21T18:15:43;5.47;;;2.60;;
45762;SDS011;37512;52.408;13.356;2022-09-21T18:24:29;3.90;;;2.22;;
45762;SDS011;37512;52.408;13.356;2022-09-21T18:28:47;4.97;;;1.90;;
45762;SDS011;37512;52.408;13.356;2022-09-21T18:32:58;3.28;;;2.50;;
45762;SDS011;37512;52.408;13.356;2022-09-21T18:41:50;3.55;;;2.25;;
45762;SDS011;37512;52.408;13.356;2022-09-21T18:46:11;4.00;;;2.40;;
45762;SDS011;37512;52.408;13.356;2022-09-21T18:50:23;3.35;;;2.33;;
45762;SDS011;37512;52.408;13.356;2022-09-21T18:54:31;7.03;;;3.60;;
45762;SDS011;37512;52.408;13.356;2022-09-21T18:58:33;6.25;;;3.75;;
45762;SDS011;37512;52.408;13.356;2022-09-21T19:02:42;7.18;;;2.75;;
45762;SDS011;37512;52.408;13.356;2022-09-21T19:07:25;4.35;;;2.50;;
45762;SDS011;37512;52.408;13.356;2022-09-21T19:16:19;3.00;;;2.20;;
45762;SDS011;37512;52.408;13.356;2022-09-21T19:34:13;6.68;;;3.70;;
45762;SDS011;37512;52.408;13.356;2022-09-21T19:38:30;8.23;;;4.10;;
45762;SDS011;37512;52.408;13.356;2022-09-21T19:51:07;6.32;;;3.58;;
45762;SDS011;37512;52.408;13.356;2022-09-21T19:55:19;5.53;;;3.72;;
45762;SDS011;37512;52.408;13.356;2022-09-21T19:59:43;8.40;;;4.47;;
45762;SDS011;37512;52.408;13.356;2022-09-21T20:03:45;8.30;;;4.07;;
45762;SDS011;37512;52.408;13.356;2022-09-21T20:07:53;7.93;;;4.85;;
45762;SDS011;37512;52.408;13.356;2022-09-21T20:16:28;10.50;;;4.10;;
45762;SDS011;37512;52.408;13.356;2022-09-21T20:20:46;7.70;;;4.10;;
45762;SDS011;37512;52.408;13.356;2022-09-21T20:28:56;7.15;;;4.10;;
45762;SDS011;37512;52.408;13.356;2022-09-21T20:33:05;4.80;;;3.35;;
45762;SDS011;37512;52.408;13.356;2022-09-21T20:37:13;5.65;;;4.00;;
45762;SDS011;37512;52.408;13.356;2022-09-21T20:41:15;6.32;;;4.45;;
45762;SDS011;37512;52.408;13.356;2022-09-21T20:45:19;7.72;;;4.90;;
45762;SDS011;37512;52.408;13.356;2022-09-21T20:49:21;8.55;;;5.13;;
45762;SDS011;37512;52.408;13.356;2022-09-21T20:53:22;7.82;;;4.13;;
45762;SDS011;37512;52.408;13.356;2022-09-21T20:57:24;9.57;;;5.10;;
45762;SDS011;37512;52.408;13.356;2022-09-21T21:01:26;5.63;;;3.92;;
45762;SDS011;37512;52.408;13.356;2022-09-21T21:05:27;7.55;;;4.88;;
45762;SDS011;37512;52.408;13.356;2022-09-21T21:09:29;7.53;;;4.45;;
45762;SDS011;37512;52.408;13.356;2022-09-21T21:13:31;7.57;;;4.30;;
45762;SDS011;37512;52.408;13.356;2022-09-21T21:17:33;6.65;;;4.15;;
45762;SDS011;37512;52.408;13.356;2022-09-21T21:21:36;7.50;;;4.35;;
45762;SDS011;37512;52.408;13.356;2022-09-21T21:25:38;7.22;;;4.40;;
45762;SDS011;37512;52.408;13.356;2022-09-21T21:29:40;6.88;;;4.38;;
45762;SDS011;37512;52.408;13.356;2022-09-21T21:33:42;8.75;;;4.93;;
45762;SDS011;37512;52.408;13.356;2022-09-21T21:37:43;9.88;;;4.65;;
45762;SDS011;37512;52.408;13.356;2022-09-21T21:41:45;8.77;;;4.93;;
45762;SDS011;37512;52.408;13.356;2022-09-21T21:45:53;6.90;;;4.43;;
45762;SDS011;37512;52.408;13.356;2022-09-21T21:50:01;7.95;;;4.30;;
45762;SDS011;37512;52.408;13.356;2022-09-21T21:54:03;8.77;;;4.85;;
45762;SDS011;37512;52.408;13.356;2022-09-21T21:58:05;9.20;;;4.75;;
45762;SDS011;37512;52.408;13.356;2022-09-21T22:02:07;7.97;;;4.63;;
45762;SDS011;37512;52.408;13.356;2022-09-21T22:06:08;7.30;;;4.20;;
45762;SDS011;37512;52.408;13.356;2022-09-21T22:10:11;8.48;;;4.20;;
45762;SDS011;37512;52.408;13.356;2022-09-21T22:14:13;11.27;;;4.78;;
45762;SDS011;37512;52.408;13.356;2022-09-21T22:18:15;6.18;;;4.47;;
45762;SDS011;37512;52.408;13.356;2022-09-21T22:22:19;7.15;;;5.00;;
45762;SDS011;37512;52.408;13.356;2022-09-21T22:26:21;5.50;;;4.60;;
45762;SDS011;37512;52.408;13.356;2022-09-21T22:30:23;7.93;;;4.88;;
45762;SDS011;37512;52.408;13.356;2022-09-21T22:34:24;8.07;;;4.97;;
45762;SDS011;37512;52.408;13.356;2022-09-21T22:38:26;7.18;;;4.57;;
45762;SDS011;37512;52.408;13.356;2022-09-21T22:42:30;8.23;;;5.30;;
45762;SDS011;37512;52.408;13.356;2022-09-21T22:46:32;9.40;;;5.38;;
45762;SDS011;37512;52.408;13.356;2022-09-21T22:50:34;9.10;;;5.90;;
45762;SDS011;37512;52.408;13.356;2022-09-21T22:54:35;7.80;;;5.50;;
45762;SDS011;37512;52.408;13.356;2022-09-21T22:58:37;10.23;;;5.75;;
45762;SDS011;37512;52.408;13.356;2022-09-21T23:02:40;11.98;;;7.03;;
45762;SDS011;37512;52.408;13.356;2022-09-21T23:06:43;13.20;;;8.30;;
45762;SDS011;37512;52.408;13.356;2022-09-21T23:10:45;13.07;;;7.85;;
45762;SDS011;37512;52.408;13.356;2022-09-21T23:14:46;12.57;;;7.40;;
45762;SDS011;37512;52.408;13.356;2022-09-21T23:18:48;14.80;;;6.55;;
45762;SDS011;37512;52.408;13.356;2022-09-21T23:22:50;9.35;;;6.28;;
45762;SDS011;37512;52.408;13.356;2022-09-21T23:26:52;9.50;;;5.78;;
45762;SDS011;37512;52.408;13.356;2022-09-21T23:30:57;8.85;;;4.80;;
45762;SDS011;37512;52.408;13.356;2022-09-21T23:35:00;7.65;;;4.88;;
45762;SDS011;37512;52.408;13.356;2022-09-21T23:39:02;7.70;;;4.45;;
45762;SDS011;37512;52.408;13.356;2022-09-21T23:43:05;7.32;;;4.15;;
45762;SDS011;37512;52.408;13.356;2022-09-21T23:47:06;6.60;;;4.00;;
45762;SDS011;37512;52.408;13.356;2022-09-21T23:51:08;6.72;;;3.22;;
45762;SDS011;37512;52.408;13.356;2022-09-21T23:55:10;6.80;;;3.83;;
45762;SDS011;37512;52.408;13.356;2022-09-21T23:59:12;7.00;;;3.50;;
